Time;durP1;ratioP1;P1;durP2;ratioP2;P2;SDS_P1;SDS_P2;PMS_P1;PMS_P2;Temp;Humidity;BMP_temperature;BMP_pressure;BME280_temperature;BME280_humidity;BME280_pressure;Samples;Min_cycle;Max_cycle;Signal;HPM_P1;HPM_P2
2021/11/22 00:01:02;;;;;;;20.80;7.10;;;;;;;;;;4980961;28;20054;-84
2021/11/22 00:03:29;;;;;;;15.27;7.27;;;;;;;;;;4980835;28;20043;-84
2021/11/22 00:05:55;;;;;;;21.10;7.53;;;;;;;;;;4983484;28;20031;-84
2021/11/22 00:08:21;;;;;;;19.87;7.83;;;;;;;;;;4982497;28;20038;-83
2021/11/22 00:10:48;;;;;;;15.60;6.50;;;;;;;;;;4983012;28;20043;-83
2021/11/22 00:13:14;;;;;;;16.47;6.40;;;;;;;;;;4983575;28;20054;-84
2021/11/22 00:15:40;;;;;;;16.07;6.57;;;;;;;;;;4983119;28;20026;-84
2021/11/22 00:18:06;;;;;;;16.40;6.30;;;;;;;;;;4981306;28;20090;-84
2021/11/22 00:20:32;;;;;;;21.30;8.70;;;;;;;;;;4960456;28;20559;-84
2021/11/22 00:22:58;;;;;;;18.33;8.10;;;;;;;;;;4982773;28;20034;-84
2021/11/22 00:25:24;;;;;;;22.73;8.43;;;;;;;;;;4982991;28;20031;-84
2021/11/22 00:27:51;;;;;;;19.37;8.40;;;;;;;;;;4981106;28;20088;-84
2021/11/22 00:30:17;;;;;;;19.67;7.73;;;;;;;;;;4978824;28;20035;-84
2021/11/22 00:32:45;;;;;;;22.97;7.97;;;;;;;;;;4982119;28;20086;-84
2021/11/22 00:35:11;;;;;;;19.97;7.00;;;;;;;;;;4974339;28;20034;-84
2021/11/22 00:37:40;;;;;;;19.27;8.10;;;;;;;;;;4981575;28;20046;-84
2021/11/22 00:40:07;;;;;;;18.07;8.03;;;;;;;;;;4973990;28;20057;-84
2021/11/22 00:42:34;;;;;;;20.80;7.67;;;;;;;;;;4982924;28;20050;-84
2021/11/22 00:45:00;;;;;;;22.10;7.33;;;;;;;;;;4976857;28;20027;-85
2021/11/22 00:47:26;;;;;;;18.47;7.27;;;;;;;;;;4986013;28;20031;-85
2021/11/22 00:49:52;;;;;;;18.70;6.57;;;;;;;;;;4986669;28;20038;-84
2021/11/22 00:52:19;;;;;;;21.40;7.93;;;;;;;;;;4987190;28;20027;-85
2021/11/22 00:54:45;;;;;;;20.80;7.93;;;;;;;;;;4986301;28;20033;-84
2021/11/22 00:57:11;;;;;;;24.53;8.00;;;;;;;;;;4986848;28;20027;-85
2021/11/22 00:59:37;;;;;;;25.90;8.37;;;;;;;;;;4986239;28;20595;-84
2021/11/22 01:02:03;;;;;;;20.93;8.20;;;;;;;;;;4986363;28;20506;-85
2021/11/22 01:04:29;;;;;;;19.37;7.57;;;;;;;;;;4985927;28;20406;-85
2021/11/22 01:06:55;;;;;;;22.50;8.97;;;;;;;;;;4983866;28;20050;-85
2021/11/22 01:09:21;;;;;;;19.93;7.90;;;;;;;;;;4985176;28;20066;-85
2021/11/22 01:11:47;;;;;;;21.90;8.40;;;;;;;;;;4968592;28;20481;-85
2021/11/22 01:14:14;;;;;;;18.63;7.87;;;;;;;;;;4972562;28;20062;-84
2021/11/22 01:16:40;;;;;;;17.63;7.40;;;;;;;;;;4965858;29;20020;-84
2021/11/22 01:19:07;;;;;;;19.83;8.23;;;;;;;;;;4964518;29;20483;-85
2021/11/22 01:21:34;;;;;;;19.03;6.77;;;;;;;;;;4964163;29;20037;-84
2021/11/22 01:24:00;;;;;;;18.00;7.13;;;;;;;;;;4969089;28;20042;-85
2021/11/22 01:26:26;;;;;;;18.13;6.77;;;;;;;;;;4985046;28;20459;-84
2021/11/22 01:28:52;;;;;;;19.33;7.57;;;;;;;;;;4984407;28;20081;-85
2021/11/22 01:31:18;;;;;;;18.40;7.63;;;;;;;;;;4985133;28;20101;-85
2021/11/22 01:33:44;;;;;;;16.33;6.87;;;;;;;;;;4984105;28;20029;-85
2021/11/22 01:36:11;;;;;;;17.43;7.10;;;;;;;;;;4985503;28;20038;-84
2021/11/22 01:38:37;;;;;;;18.43;5.97;;;;;;;;;;4983160;28;20086;-84
2021/11/22 01:41:04;;;;;;;21.63;7.87;;;;;;;;;;4972567;28;20049;-84
2021/11/22 01:43:31;;;;;;;18.07;7.37;;;;;;;;;;4966016;29;20037;-84
2021/11/22 01:45:57;;;;;;;16.13;6.20;;;;;;;;;;4968219;28;20052;-84
2021/11/22 01:48:23;;;;;;;18.30;7.20;;;;;;;;;;4985007;28;20042;-84
2021/11/22 01:50:49;;;;;;;18.83;7.20;;;;;;;;;;4983544;28;20027;-84
2021/11/22 01:53:16;;;;;;;19.60;8.63;;;;;;;;;;4985177;28;20038;-85
2021/11/22 01:55:43;;;;;;;23.07;8.33;;;;;;;;;;4985443;28;20027;-84
2021/11/22 01:58:09;;;;;;;24.77;8.50;;;;;;;;;;4983448;28;20086;-84
2021/11/22 02:00:38;;;;;;;20.73;7.70;;;;;;;;;;4983838;28;20159;-84
2021/11/22 02:03:05;;;;;;;23.97;7.93;;;;;;;;;;4967509;28;20142;-84
2021/11/22 02:05:31;;;;;;;21.90;7.47;;;;;;;;;;4984831;28;20038;-85
2021/11/22 02:07:57;;;;;;;18.67;7.17;;;;;;;;;;4985009;28;20011;-84
2021/11/22 02:10:24;;;;;;;24.20;8.40;;;;;;;;;;4983116;28;20057;-85
2021/11/22 02:12:50;;;;;;;18.87;8.07;;;;;;;;;;4984772;28;20404;-84
2021/11/22 02:15:17;;;;;;;24.13;8.47;;;;;;;;;;4982972;28;20166;-84
2021/11/22 02:17:44;;;;;;;23.53;8.43;;;;;;;;;;4982943;28;20046;-85
2021/11/22 02:20:12;;;;;;;22.00;8.20;;;;;;;;;;4985154;28;20043;-84
2021/11/22 02:22:39;;;;;;;26.47;9.17;;;;;;;;;;4967027;28;20046;-84
2021/11/22 02:25:07;;;;;;;28.87;9.00;;;;;;;;;;4983915;28;20107;-84
2021/11/22 02:27:33;;;;;;;24.73;9.07;;;;;;;;;;4964293;29;20027;-84
2021/11/22 02:30:00;;;;;;;24.30;8.30;;;;;;;;;;4981097;28;20545;-84
2021/11/22 02:32:26;;;;;;;23.07;7.90;;;;;;;;;;4984999;28;20078;-84
2021/11/22 02:34:52;;;;;;;18.03;6.90;;;;;;;;;;4983734;28;20052;-85
2021/11/22 02:37:18;;;;;;;22.20;8.63;;;;;;;;;;4984633;28;20078;-83
2021/11/22 02:39:44;;;;;;;22.13;8.03;;;;;;;;;;4983625;28;20454;-84
2021/11/22 02:42:20;;;;;;;20.53;8.13;;;;;;;;;;4982881;28;20035;-84
2021/11/22 02:44:46;;;;;;;19.33;8.00;;;;;;;;;;4984423;28;20035;-85
2021/11/22 02:47:12;;;;;;;22.17;8.40;;;;;;;;;;4984244;28;20106;-84
2021/11/22 02:49:38;;;;;;;20.20;7.80;;;;;;;;;;4967261;28;20479;-84
2021/11/22 02:55:10;;;;;;;20.60;7.30;;;;;;;;;;4970352;28;20438;-84
2021/11/22 02:57:36;;;;;;;19.57;8.00;;;;;;;;;;4971199;28;20027;-85
2021/11/22 03:00:03;;;;;;;17.07;7.73;;;;;;;;;;4981126;28;20035;-84
2021/11/22 03:02:29;;;;;;;15.10;6.73;;;;;;;;;;4962249;28;20031;-84
2021/11/22 03:04:55;;;;;;;21.37;7.33;;;;;;;;;;4982091;28;20090;-84
2021/11/22 03:07:21;;;;;;;20.07;6.87;;;;;;;;;;4979896;28;20030;-84
2021/11/22 03:09:47;;;;;;;17.43;6.87;;;;;;;;;;4965070;28;20038;-84
2021/11/22 03:12:14;;;;;;;19.13;7.53;;;;;;;;;;4982396;28;20031;-84
2021/11/22 03:14:41;;;;;;;20.67;8.13;;;;;;;;;;4966036;28;20109;-85
2021/11/22 03:17:07;;;;;;;17.00;7.03;;;;;;;;;;4966347;28;20098;-84
2021/11/22 03:19:33;;;;;;;19.97;7.37;;;;;;;;;;4982101;28;20447;-84
2021/11/22 03:21:59;;;;;;;18.83;8.30;;;;;;;;;;4981422;28;20042;-84
2021/11/22 03:24:27;;;;;;;20.73;7.97;;;;;;;;;;4983302;28;20076;-84
2021/11/22 03:26:53;;;;;;;16.00;5.90;;;;;;;;;;4983953;28;20161;-84
2021/11/22 03:29:19;;;;;;;16.20;6.70;;;;;;;;;;4984630;28;20146;-84
2021/11/22 03:31:45;;;;;;;18.27;6.83;;;;;;;;;;4984308;28;20045;-84
2021/11/22 03:34:13;;;;;;;17.73;7.00;;;;;;;;;;4983844;28;20609;-84
2021/11/22 03:36:40;;;;;;;16.87;7.60;;;;;;;;;;4982048;28;20022;-84
2021/11/22 03:39:11;;;;;;;19.30;7.17;;;;;;;;;;4984044;28;20026;-84
2021/11/22 03:41:37;;;;;;;21.20;7.60;;;;;;;;;;4982482;28;20018;-84
2021/11/22 03:44:14;;;;;;;19.53;6.80;;;;;;;;;;4982411;28;20039;-84
2021/11/22 03:46:41;;;;;;;14.10;6.23;;;;;;;;;;4984092;28;20098;-83
2021/11/22 03:49:07;;;;;;;18.77;7.83;;;;;;;;;;4983922;28;20034;-84
2021/11/22 03:51:33;;;;;;;23.43;8.13;;;;;;;;;;4982009;28;20120;-84
2021/11/22 03:53:59;;;;;;;18.70;7.70;;;;;;;;;;4963365;28;20456;-83
2021/11/22 03:56:25;;;;;;;19.90;7.17;;;;;;;;;;4970520;28;20045;-84
2021/11/22 03:58:51;;;;;;;27.07;7.57;;;;;;;;;;4986644;28;20053;-85
2021/11/22 04:01:17;;;;;;;19.83;7.83;;;;;;;;;;4980517;28;20034;-84
2021/11/22 04:03:44;;;;;;;17.50;7.30;;;;;;;;;;4981920;28;20050;-84
2021/11/22 04:06:10;;;;;;;18.33;7.53;;;;;;;;;;4982231;28;20038;-84
2021/11/22 04:08:36;;;;;;;20.70;6.93;;;;;;;;;;4980209;28;20027;-84
2021/11/22 04:11:03;;;;;;;21.97;7.50;;;;;;;;;;4981273;28;20031;-85
2021/11/22 04:13:29;;;;;;;20.03;6.83;;;;;;;;;;4976179;28;20046;-85
2021/11/22 04:15:55;;;;;;;21.07;8.13;;;;;;;;;;4974622;28;20034;-85
2021/11/22 04:18:21;;;;;;;18.87;6.47;;;;;;;;;;4967558;28;20402;-85
2021/11/22 04:20:47;;;;;;;19.90;6.80;;;;;;;;;;4986027;28;20053;-84
2021/11/22 04:23:14;;;;;;;20.97;7.73;;;;;;;;;;4986065;28;20109;-84
2021/11/22 04:25:40;;;;;;;18.17;6.47;;;;;;;;;;4985092;28;20145;-85
2021/11/22 04:28:07;;;;;;;15.00;6.70;;;;;;;;;;4971082;28;20035;-84
2021/11/22 04:30:34;;;;;;;13.83;5.70;;;;;;;;;;4981082;28;20093;-85
2021/11/22 04:33:00;;;;;;;17.23;6.83;;;;;;;;;;4987217;28;20094;-84
2021/11/22 04:35:26;;;;;;;17.77;6.07;;;;;;;;;;5003067;23;20039;-84
2021/11/22 04:37:53;;;;;;;14.93;5.90;;;;;;;;;;4960382;28;20042;-85
2021/11/22 04:40:19;;;;;;;16.17;6.27;;;;;;;;;;4963162;28;20650;-84
2021/11/22 04:42:47;;;;;;;14.13;5.80;;;;;;;;;;4979791;28;20482;-84
2021/11/22 04:45:14;;;;;;;12.73;5.43;;;;;;;;;;4977988;28;20023;-84
2021/11/22 04:47:40;;;;;;;17.53;6.27;;;;;;;;;;4977820;28;20247;-84
2021/11/22 04:50:07;;;;;;;13.53;5.53;;;;;;;;;;4960822;28;20049;-83
2021/11/22 04:52:33;;;;;;;14.23;5.47;;;;;;;;;;4958868;28;20062;-84
2021/11/22 04:54:59;;;;;;;13.13;5.20;;;;;;;;;;4967676;28;20085;-84
2021/11/22 04:57:25;;;;;;;20.53;5.83;;;;;;;;;;4957544;28;20137;-84
2021/11/22 04:59:51;;;;;;;13.13;5.97;;;;;;;;;;4957182;28;20043;-84
2021/11/22 05:02:18;;;;;;;11.47;4.87;;;;;;;;;;4960544;28;20034;-84
2021/11/22 05:04:44;;;;;;;15.33;6.37;;;;;;;;;;4967028;28;20098;-84
2021/11/22 05:07:10;;;;;;;13.00;5.27;;;;;;;;;;4959558;28;20023;-84
2021/11/22 05:09:36;;;;;;;14.20;5.27;;;;;;;;;;4959808;28;20045;-84
2021/11/22 05:12:02;;;;;;;13.07;5.47;;;;;;;;;;4954035;28;20059;-84
2021/11/22 05:14:28;;;;;;;15.00;5.40;;;;;;;;;;4958562;28;20042;-85
2021/11/22 05:16:54;;;;;;;17.70;6.23;;;;;;;;;;4959454;28;20122;-84
2021/11/22 05:19:21;;;;;;;14.50;5.40;;;;;;;;;;4975810;28;20034;-84
2021/11/22 05:21:47;;;;;;;14.43;5.63;;;;;;;;;;4958567;28;20034;-84
2021/11/22 05:24:13;;;;;;;15.13;6.27;;;;;;;;;;4961833;28;20030;-85
2021/11/22 05:26:39;;;;;;;15.47;6.00;;;;;;;;;;4962429;28;20398;-84
2021/11/22 05:29:08;;;;;;;14.77;5.53;;;;;;;;;;4956924;28;20035;-84
2021/11/22 05:31:34;;;;;;;16.17;6.07;;;;;;;;;;4956732;28;20089;-84
2021/11/22 05:34:01;;;;;;;15.97;5.43;;;;;;;;;;4958112;28;20105;-84
2021/11/22 05:36:27;;;;;;;18.47;6.30;;;;;;;;;;4955431;28;20090;-84
2021/11/22 05:38:54;;;;;;;14.43;5.20;;;;;;;;;;4957534;28;20097;-85
2021/11/22 05:41:20;;;;;;;13.10;5.07;;;;;;;;;;4972546;28;20033;-84
2021/11/22 05:43:46;;;;;;;14.00;5.13;;;;;;;;;;4953138;28;20066;-83
2021/11/22 05:46:12;;;;;;;12.83;4.80;;;;;;;;;;4970257;28;20035;-84
2021/11/22 05:48:38;;;;;;;11.53;5.23;;;;;;;;;;4956454;28;20037;-84
2021/11/22 05:51:08;;;;;;;12.77;5.30;;;;;;;;;;4957242;28;20026;-87
2021/11/22 05:53:35;;;;;;;15.53;6.07;;;;;;;;;;4955203;28;20484;-86
2021/11/22 05:56:03;;;;;;;14.30;6.10;;;;;;;;;;4973993;28;20416;-88
2021/11/22 05:58:31;;;;;;;13.23;5.17;;;;;;;;;;4973759;28;20030;-87
2021/11/22 06:00:57;;;;;;;13.17;5.33;;;;;;;;;;4956433;28;20053;-87
2021/11/22 06:03:23;;;;;;;14.07;5.53;;;;;;;;;;4970310;28;20027;-87
2021/11/22 06:05:49;;;;;;;12.07;5.13;;;;;;;;;;4953116;28;20042;-87
2021/11/22 06:08:16;;;;;;;11.60;4.43;;;;;;;;;;4972164;28;20026;-87
2021/11/22 06:10:42;;;;;;;12.17;4.60;;;;;;;;;;4954236;28;20025;-87
2021/11/22 06:13:11;;;;;;;14.23;5.27;;;;;;;;;;4953428;28;20031;-87
2021/11/22 06:15:38;;;;;;;12.03;5.23;;;;;;;;;;4968539;28;20178;-87
2021/11/22 06:18:04;;;;;;;12.83;4.73;;;;;;;;;;4959838;28;20082;-87
2021/11/22 06:20:30;;;;;;;12.77;5.47;;;;;;;;;;4985938;28;20034;-87
2021/11/22 06:22:56;;;;;;;12.13;5.00;;;;;;;;;;4960567;28;20027;-87
2021/11/22 06:25:22;;;;;;;12.27;5.10;;;;;;;;;;4960468;28;20066;-87
2021/11/22 06:27:48;;;;;;;11.43;4.17;;;;;;;;;;4953672;29;20071;-86
2021/11/22 06:30:14;;;;;;;9.83;4.50;;;;;;;;;;4962166;28;20039;-87
2021/11/22 06:32:40;;;;;;;13.77;4.80;;;;;;;;;;4971935;28;20065;-85
2021/11/22 06:35:07;;;;;;;9.93;4.50;;;;;;;;;;4954521;28;20050;-85
2021/11/22 06:37:34;;;;;;;13.43;5.33;;;;;;;;;;4954844;28;20475;-85
2021/11/22 06:40:00;;;;;;;12.07;5.33;;;;;;;;;;4954838;28;20045;-85
2021/11/22 06:42:26;;;;;;;13.90;4.70;;;;;;;;;;4952546;29;20071;-85
2021/11/22 06:44:52;;;;;;;12.43;5.20;;;;;;;;;;4957905;28;20495;-84
2021/11/22 06:47:19;;;;;;;10.03;4.70;;;;;;;;;;4973604;28;20419;-85
2021/11/22 06:49:45;;;;;;;10.43;4.43;;;;;;;;;;4966933;28;20042;-85
2021/11/22 06:52:13;;;;;;;12.30;5.00;;;;;;;;;;4971007;28;20086;-84
2021/11/22 06:54:39;;;;;;;11.07;4.13;;;;;;;;;;4972686;28;20423;-84
2021/11/22 06:57:05;;;;;;;10.90;5.37;;;;;;;;;;4972942;28;20022;-85
2021/11/22 06:59:34;;;;;;;12.43;4.77;;;;;;;;;;4953913;28;20042;-85
2021/11/22 07:02:00;;;;;;;9.77;3.87;;;;;;;;;;4970350;28;20578;-84
2021/11/22 07:04:26;;;;;;;9.50;3.50;;;;;;;;;;4970567;28;20427;-85
2021/11/22 07:06:52;;;;;;;12.00;4.90;;;;;;;;;;4955349;28;20038;-84
2021/11/22 07:09:19;;;;;;;8.60;3.67;;;;;;;;;;4974243;28;20669;-85
2021/11/22 07:11:46;;;;;;;9.90;4.37;;;;;;;;;;4956962;28;20122;-85
2021/11/22 07:14:13;;;;;;;11.63;4.20;;;;;;;;;;4953855;28;20054;-84
2021/11/22 07:16:39;;;;;;;7.10;3.33;;;;;;;;;;4955607;28;20117;-84
2021/11/22 07:19:05;;;;;;;8.20;3.80;;;;;;;;;;4972367;28;20031;-85
2021/11/22 07:21:31;;;;;;;9.30;4.23;;;;;;;;;;4973033;28;20034;-85
2021/11/22 07:23:58;;;;;;;8.17;4.07;;;;;;;;;;4954351;28;20045;-84
2021/11/22 07:26:24;;;;;;;9.53;3.80;;;;;;;;;;4952309;28;20041;-84
2021/11/22 07:28:50;;;;;;;7.40;3.60;;;;;;;;;;4964482;28;20395;-84
2021/11/22 07:31:16;;;;;;;8.33;3.50;;;;;;;;;;4970391;28;20058;-84
2021/11/22 07:33:42;;;;;;;8.27;3.40;;;;;;;;;;4957512;28;20097;-85
2021/11/22 07:36:08;;;;;;;9.03;3.83;;;;;;;;;;4957697;28;20476;-84
2021/11/22 07:38:35;;;;;;;8.87;3.50;;;;;;;;;;4954807;28;20027;-84
2021/11/22 07:41:01;;;;;;;10.80;4.23;;;;;;;;;;4967248;28;20034;-84
2021/11/22 07:43:27;;;;;;;9.03;3.87;;;;;;;;;;4975204;28;20232;-85
2021/11/22 07:45:53;;;;;;;9.53;3.63;;;;;;;;;;4958864;28;20811;-84
2021/11/22 07:48:19;;;;;;;7.33;3.50;;;;;;;;;;4960659;28;20038;-84
2021/11/22 07:50:45;;;;;;;9.03;3.60;;;;;;;;;;4967552;28;20404;-85
2021/11/22 07:53:11;;;;;;;7.67;3.70;;;;;;;;;;4965097;29;20047;-84
2021/11/22 07:55:38;;;;;;;8.53;3.80;;;;;;;;;;4965127;28;20467;-84
2021/11/22 07:58:04;;;;;;;7.93;4.10;;;;;;;;;;4967295;28;20031;-85
2021/11/22 08:00:30;;;;;;;8.50;3.33;;;;;;;;;;4949628;29;20031;-85
2021/11/22 08:02:56;;;;;;;8.43;3.80;;;;;;;;;;4952397;28;20278;-85
2021/11/22 08:05:24;;;;;;;7.17;3.00;;;;;;;;;;4965300;28;20108;-85
2021/11/22 08:07:53;;;;;;;7.27;3.57;;;;;;;;;;4966713;28;20495;-85
2021/11/22 08:12:48;;;;;;;10.50;3.90;;;;;;;;;;4984982;28;20042;-85
2021/11/22 08:15:15;;;;;;;9.13;3.80;;;;;;;;;;4965980;28;20445;-85
2021/11/22 08:17:43;;;;;;;7.67;3.23;;;;;;;;;;4966814;28;20030;-84
2021/11/22 08:20:13;;;;;;;9.30;3.83;;;;;;;;;;4958952;28;20109;-85
2021/11/22 08:22:39;;;;;;;9.87;3.80;;;;;;;;;;4961844;28;20027;-85
2021/11/22 08:25:06;;;;;;;7.57;3.63;;;;;;;;;;4962414;28;20399;-85
2021/11/22 08:27:33;;;;;;;6.63;2.77;;;;;;;;;;4961461;28;20426;-85
2021/11/22 08:30:04;;;;;;;7.67;3.30;;;;;;;;;;4961567;28;20045;-85
2021/11/22 08:32:31;;;;;;;7.37;3.07;;;;;;;;;;4967957;28;20059;-85
2021/11/22 08:34:57;;;;;;;7.40;3.00;;;;;;;;;;4958854;28;20491;-84
2021/11/22 08:37:23;;;;;;;6.77;2.53;;;;;;;;;;4959605;28;20035;-84
2021/11/22 08:39:49;;;;;;;8.43;2.57;;;;;;;;;;4957944;28;20153;-85
2021/11/22 08:42:17;;;;;;;5.47;2.80;;;;;;;;;;4962880;28;20043;-84
2021/11/22 08:44:43;;;;;;;6.93;2.53;;;;;;;;;;4941481;29;20038;-84
2021/11/22 08:47:09;;;;;;;5.63;2.73;;;;;;;;;;4941365;29;20042;-85
2021/11/22 08:49:36;;;;;;;7.00;2.67;;;;;;;;;;4940673;28;20035;-84
2021/11/22 08:52:03;;;;;;;7.97;3.00;;;;;;;;;;4956637;28;20484;-84
2021/11/22 08:54:29;;;;;;;10.23;3.23;;;;;;;;;;4959032;28;20035;-84
2021/11/22 08:56:55;;;;;;;5.93;2.63;;;;;;;;;;4961063;28;20041;-84
2021/11/22 08:59:22;;;;;;;5.00;2.23;;;;;;;;;;4956947;28;20062;-84
2021/11/22 09:01:48;;;;;;;9.60;3.40;;;;;;;;;;4942230;29;20039;-85
2021/11/22 09:04:15;;;;;;;7.73;3.07;;;;;;;;;;4943286;29;20074;-84
2021/11/22 09:06:43;;;;;;;6.77;2.60;;;;;;;;;;4946888;29;20291;-84
2021/11/22 09:09:12;;;;;;;5.70;2.53;;;;;;;;;;4947301;29;20032;-85
2021/11/22 09:11:42;;;;;;;8.07;2.93;;;;;;;;;;4947887;29;20082;-84
2021/11/22 09:14:08;;;;;;;6.53;2.67;;;;;;;;;;4954742;28;20023;-85
2021/11/22 09:16:34;;;;;;;9.07;3.20;;;;;;;;;;4966367;28;20037;-84
2021/11/22 09:19:01;;;;;;;6.77;3.00;;;;;;;;;;4962593;28;20038;-84
2021/11/22 09:21:30;;;;;;;7.47;3.27;;;;;;;;;;4966808;29;20055;-84
2021/11/22 09:23:56;;;;;;;7.13;2.97;;;;;;;;;;4965501;28;20061;-85
2021/11/22 09:26:22;;;;;;;7.87;3.20;;;;;;;;;;4968781;28;20034;-85
2021/11/22 09:28:49;;;;;;;7.60;3.30;;;;;;;;;;4968318;28;20480;-84
2021/11/22 09:31:16;;;;;;;8.80;3.77;;;;;;;;;;4974874;28;20411;-84
2021/11/22 09:33:44;;;;;;;7.40;3.30;;;;;;;;;;4963733;28;20057;-84
2021/11/22 09:36:10;;;;;;;7.37;3.13;;;;;;;;;;4983115;28;20026;-85
2021/11/22 09:38:37;;;;;;;8.80;3.90;;;;;;;;;;4983651;28;20038;-85
2021/11/22 09:41:03;;;;;;;6.10;3.07;;;;;;;;;;4966084;29;20201;-85
2021/11/22 09:43:30;;;;;;;9.47;3.87;;;;;;;;;;4970677;28;20035;-85
2021/11/22 09:45:56;;;;;;;10.63;3.77;;;;;;;;;;4971681;28;20015;-85
2021/11/22 09:48:23;;;;;;;8.17;3.67;;;;;;;;;;4969345;28;20073;-85
2021/11/22 09:50:49;;;;;;;10.03;4.00;;;;;;;;;;4989503;28;20019;-85
2021/11/22 09:53:15;;;;;;;8.73;4.40;;;;;;;;;;4990577;28;20037;-86
2021/11/22 09:55:42;;;;;;;9.00;3.50;;;;;;;;;;5003755;28;20029;-84
2021/11/22 09:58:09;;;;;;;7.47;4.00;;;;;;;;;;4980223;28;20484;-84
2021/11/22 10:00:40;;;;;;;7.93;3.80;;;;;;;;;;4984465;28;20031;-84
2021/11/22 10:03:10;;;;;;;7.53;3.63;;;;;;;;;;4970726;28;20026;-85
2021/11/22 10:05:36;;;;;;;10.37;3.93;;;;;;;;;;4983762;28;20124;-85
2021/11/22 10:08:05;;;;;;;7.63;3.93;;;;;;;;;;4989481;28;20031;-85
2021/11/22 10:10:34;;;;;;;8.80;4.07;;;;;;;;;;4986691;28;20054;-84
2021/11/22 10:13:01;;;;;;;8.17;3.97;;;;;;;;;;4986946;28;20031;-85
2021/11/22 10:15:33;;;;;;;7.70;3.80;;;;;;;;;;4988999;28;20027;-85
2021/11/22 10:18:00;;;;;;;7.30;3.53;;;;;;;;;;4988804;28;20023;-85
2021/11/22 10:20:27;;;;;;;9.97;3.57;;;;;;;;;;4974502;28;20037;-85
2021/11/22 10:23:07;;;;;;;11.30;4.33;;;;;;;;;;4984420;28;20030;-85
2021/11/22 10:25:38;;;;;;;10.00;4.50;;;;;;;;;;4984668;28;20041;-85
2021/11/22 10:28:04;;;;;;;10.00;3.80;;;;;;;;;;4971817;28;20054;-85
2021/11/22 10:30:33;;;;;;;10.43;4.10;;;;;;;;;;4968867;28;20088;-87
2021/11/22 10:33:00;;;;;;;10.50;4.83;;;;;;;;;;4987112;28;20011;-83
2021/11/22 10:35:28;;;;;;;10.43;4.43;;;;;;;;;;4985308;28;20022;-84
2021/11/22 10:37:54;;;;;;;8.00;3.70;;;;;;;;;;4978662;28;20024;-83
2021/11/22 10:40:20;;;;;;;9.67;4.07;;;;;;;;;;4970088;28;20049;-83
2021/11/22 10:42:46;;;;;;;9.00;3.57;;;;;;;;;;4970584;28;20045;-83
2021/11/22 10:45:33;;;;;;;11.03;4.27;;;;;;;;;;4988907;28;20031;-84
2021/11/22 10:48:08;;;;;;;8.07;3.17;;;;;;;;;;4988081;28;20030;-84
2021/11/22 10:50:36;;;;;;;6.77;3.13;;;;;;;;;;4974599;28;20057;-83
2021/11/22 10:53:03;;;;;;;9.23;4.50;;;;;;;;;;4989808;28;20022;-84
2021/11/22 10:55:43;;;;;;;11.90;4.50;;;;;;;;;;4990140;28;20035;-84
2021/11/22 10:58:09;;;;;;;8.57;3.90;;;;;;;;;;4977988;28;20033;-83
2021/11/22 11:00:35;;;;;;;7.77;3.67;;;;;;;;;;4973066;28;20063;-84
2021/11/22 11:03:05;;;;;;;6.87;3.40;;;;;;;;;;4974014;28;20039;-83
2021/11/22 11:05:36;;;;;;;7.17;3.53;;;;;;;;;;4973196;28;20242;-85
2021/11/22 11:08:03;;;;;;;9.93;3.50;;;;;;;;;;4972898;29;20039;-84
2021/11/22 11:10:30;;;;;;;7.10;3.20;;;;;;;;;;4971266;28;20066;-84
2021/11/22 11:12:57;;;;;;;10.37;3.57;;;;;;;;;;4971718;28;20055;-84
2021/11/22 11:15:24;;;;;;;8.17;3.33;;;;;;;;;;4983699;28;20042;-83
2021/11/22 11:17:50;;;;;;;8.93;3.50;;;;;;;;;;4989428;28;20061;-84
2021/11/22 11:20:18;;;;;;;8.30;3.23;;;;;;;;;;4989315;28;20923;-85
2021/11/22 11:22:46;;;;;;;8.77;4.17;;;;;;;;;;4970806;28;20083;-84
2021/11/22 11:25:12;;;;;;;6.53;3.37;;;;;;;;;;4969853;28;20039;-85
2021/11/22 11:27:40;;;;;;;7.43;3.20;;;;;;;;;;4972330;28;20034;-84
2021/11/22 11:30:07;;;;;;;8.43;3.70;;;;;;;;;;4989028;28;20038;-84
2021/11/22 11:32:34;;;;;;;9.27;3.80;;;;;;;;;;4985394;28;20027;-83
2021/11/22 11:35:00;;;;;;;8.00;3.43;;;;;;;;;;4990278;28;20086;-83
2021/11/22 11:37:32;;;;;;;9.67;3.60;;;;;;;;;;4973588;28;20033;-83
2021/11/22 11:39:58;;;;;;;8.40;3.65;;;;;;;;;;4986149;28;20050;-84
2021/11/22 11:42:43;;;;;;;10.23;3.70;;;;;;;;;;4989121;28;20030;-84
2021/11/22 11:45:19;;;;;;;9.80;4.13;;;;;;;;;;4986728;28;20050;-84
2021/11/22 11:48:04;;;;;;;7.73;3.20;;;;;;;;;;4987324;28;20054;-84
2021/11/22 11:50:33;;;;;;;7.37;3.57;;;;;;;;;;4988777;28;20058;-84
2021/11/22 11:53:04;;;;;;;6.57;3.50;;;;;;;;;;4989050;28;20117;-84
2021/11/22 11:55:31;;;;;;;13.30;5.00;;;;;;;;;;4988977;28;20235;-84
2021/11/22 11:58:14;;;;;;;7.27;3.93;;;;;;;;;;4995876;23;20059;-86
2021/11/22 12:00:53;;;;;;;7.27;3.83;;;;;;;;;;4944933;28;20085;-86
2021/11/22 12:03:19;;;;;;;8.73;3.57;;;;;;;;;;4947340;28;20031;-86
2021/11/22 12:05:47;;;;;;;8.03;2.83;;;;;;;;;;4949031;28;20433;-87
2021/11/22 12:08:20;;;;;;;6.03;3.00;;;;;;;;;;4925660;29;20043;-86
2021/11/22 12:10:46;;;;;;;12.23;3.93;;;;;;;;;;4929015;29;20078;-86
2021/11/22 12:13:14;;;;;;;9.33;3.20;;;;;;;;;;4913373;29;20055;-86
2021/11/22 12:15:40;;;;;;;8.53;3.43;;;;;;;;;;4928541;29;20344;-86
2021/11/22 12:18:07;;;;;;;7.43;3.73;;;;;;;;;;4930905;29;20036;-86
2021/11/22 12:20:36;;;;;;;8.33;3.40;;;;;;;;;;4932447;29;20031;-86
2021/11/22 12:23:06;;;;;;;8.20;2.97;;;;;;;;;;4930962;29;20028;-86
2021/11/22 12:25:38;;;;;;;7.83;3.20;;;;;;;;;;4926758;29;20039;-86
2021/11/22 12:28:07;;;;;;;;;;;;;;;;;;4931535;29;20028;-86
2021/11/22 12:30:35;;;;;;;5.87;2.93;;;;;;;;;;4929939;29;20002;-86
2021/11/22 12:33:19;;;;;;;9.33;3.50;;;;;;;;;;4930092;29;20045;-86
2021/11/22 12:35:46;;;;;;;5.00;2.57;;;;;;;;;;4919845;29;20031;-86
2021/11/22 12:38:18;;;;;;;7.70;3.00;;;;;;;;;;4914493;29;20051;-86
2021/11/22 12:40:44;;;;;;;;;;;;;;;;;;4918097;29;20036;-86
2021/11/22 12:43:10;;;;;;;7.50;2.70;;;;;;;;;;4932339;29;20047;-86
2021/11/22 12:45:54;;;;;;;6.03;2.93;;;;;;;;;;4916180;29;20053;-86
2021/11/22 12:48:32;;;;;;;5.70;2.77;;;;;;;;;;4915680;29;20034;-86
2021/11/22 12:51:00;;;;;;;6.43;2.67;;;;;;;;;;4931493;29;20038;-86
2021/11/22 12:53:26;;;;;;;5.23;2.50;;;;;;;;;;4932058;29;20567;-86
2021/11/22 12:55:55;;;;;;;6.93;3.13;;;;;;;;;;4931058;29;20031;-85
2021/11/22 12:58:26;;;;;;;6.57;3.00;;;;;;;;;;4918997;29;20130;-85
2021/11/22 13:00:54;;;;;;;5.88;2.38;;;;;;;;;;4930541;29;20083;-85
2021/11/22 13:03:22;;;;;;;4.73;2.03;;;;;;;;;;4933020;29;20535;-86
2021/11/22 13:05:53;;;;;;;6.10;2.50;;;;;;;;;;4915794;29;20066;-85
2021/11/22 13:08:19;;;;;;;7.20;3.13;;;;;;;;;;4916191;29;20031;-86
2021/11/22 13:10:52;;;;;;;5.57;2.30;;;;;;;;;;4916529;29;20035;-85
2021/11/22 13:16:08;;;;;;;6.10;2.50;;;;;;;;;;4933301;29;20099;-85
2021/11/22 13:18:36;;;;;;;4.60;2.40;;;;;;;;;;4929567;29;20504;-85
2021/11/22 13:21:04;;;;;;;5.93;2.50;;;;;;;;;;4917010;29;20022;-86
2021/11/22 13:23:37;;;;;;;6.10;2.60;;;;;;;;;;4932931;29;20051;-86
2021/11/22 13:26:08;;;;;;;6.20;2.20;;;;;;;;;;4918295;29;20023;-85
2021/11/22 13:28:36;;;;;;;9.37;2.40;;;;;;;;;;4933345;29;20031;-86
2021/11/22 13:31:06;;;;;;;6.23;2.30;;;;;;;;;;4928494;29;20066;-86
2021/11/22 13:33:32;;;;;;;6.30;2.50;;;;;;;;;;4932182;29;20028;-86
2021/11/22 13:35:58;;;;;;;5.50;2.50;;;;;;;;;;4918152;29;20019;-86
2021/11/22 13:38:24;;;;;;;4.40;2.43;;;;;;;;;;4931803;29;20551;-87
2021/11/22 13:40:56;;;;;;;4.37;2.20;;;;;;;;;;4915524;29;20378;-88
2021/11/22 13:43:27;;;;;;;6.45;2.40;;;;;;;;;;4917491;29;20051;-85
2021/11/22 13:46:00;;;;;;;5.83;2.37;;;;;;;;;;4917690;29;20024;-86
2021/11/22 13:48:45;;;;;;;5.60;2.30;;;;;;;;;;4932877;29;20031;-86
2021/11/22 13:51:13;;;;;;;5.67;2.50;;;;;;;;;;4931418;29;20055;-85
2021/11/22 13:53:40;;;;;;;6.40;2.33;;;;;;;;;;4916337;29;20032;-85
2021/11/22 13:56:06;;;;;;;7.10;2.50;;;;;;;;;;4916786;29;20028;-85
2021/11/22 13:58:41;;;;;;;11.13;2.03;;;;;;;;;;4933342;29;20080;-85
2021/11/22 14:01:10;;;;;;;9.20;2.23;;;;;;;;;;4934657;29;20102;-85
2021/11/22 14:03:36;;;;;;;6.60;3.10;;;;;;;;;;4917086;29;20114;-85
2021/11/22 14:06:02;;;;;;;6.93;2.67;;;;;;;;;;4931903;29;20094;-85
2021/11/22 14:08:28;;;;;;;5.93;2.37;;;;;;;;;;4933073;29;20583;-86
2021/11/22 14:10:54;;;;;;;6.40;2.63;;;;;;;;;;4917591;29;20474;-85
2021/11/22 14:13:20;;;;;;;5.03;2.27;;;;;;;;;;4916582;29;20059;-85
2021/11/22 14:15:48;;;;;;;5.70;2.50;;;;;;;;;;4917771;29;20039;-86
2021/11/22 14:18:16;;;;;;;7.13;2.37;;;;;;;;;;4932802;29;20049;-85
2021/11/22 14:20:45;;;;;;;4.87;2.33;;;;;;;;;;4935755;29;20031;-85
2021/11/22 14:23:12;;;;;;;7.07;2.63;;;;;;;;;;4917881;29;20154;-85
2021/11/22 14:25:38;;;;;;;9.87;2.60;;;;;;;;;;4916977;29;20028;-85
2021/11/22 14:28:16;;;;;;;6.40;2.60;;;;;;;;;;4934524;29;20032;-86
2021/11/22 14:30:44;;;;;;;5.23;2.40;;;;;;;;;;4928799;29;20083;-86
2021/11/22 14:33:13;;;;;;;5.00;2.17;;;;;;;;;;4932251;29;20472;-85
2021/11/22 14:35:42;;;;;;;6.73;2.63;;;;;;;;;;4933395;29;20024;-86
2021/11/22 14:38:19;;;;;;;4.90;2.10;;;;;;;;;;4914049;29;20032;-85
2021/11/22 14:40:48;;;;;;;7.20;2.53;;;;;;;;;;4931531;29;20045;-86
2021/11/22 14:43:16;;;;;;;4.77;2.17;;;;;;;;;;4916361;29;20027;-85
2021/11/22 14:45:45;;;;;;;5.13;2.50;;;;;;;;;;4932864;29;20032;-86